Gabriella — OJHP — position and weather

sailwx.info

Track history (hours):
 
Tides and Currents Weather Stations Pressure Air Temp Water Temp Dewpoint Dewpoint Depression Visibility Wind Speed Wind Dir Waves Ship Positions

Gabriella

Last reported at 2017-Jan-23 07:30 UTC. Time now 2017-Jan-23 08:32 UTC.
Position N 59°24' E 018°27'.

Length 172 m; draft 6.5 m.

Type: Passenger vessel. MMSI: 230361000.

Date/timePositionNaut miles runAvg speedWind from/ knotsBaromVisibWave heightAir tempDewpointWater temp
2017-Jan-23 07:30N 59°24' E 018°27'10 8.9
2017-Jan-23 06:25N 59°33' E 018°35'1011.5
2017-Jan-23 05:34N 59°38' E 018°51'1313.1
2017-Jan-23 04:34N 59°44' E 019°14'1515.5
2017-Jan-23 03:33N 59°54' E 019°38'14 9.6
2017-Jan-23 02:08N 60°04' E 019°55'4515.3
2017-Jan-22 23:11N 59°37' E 021°07'1117.2
2017-Jan-22 22:33N 59°34' E 021°28'1717.1
2017-Jan-22 21:34N 59°33' E 022°01'3817.4
2017-Jan-22 19:23N 59°40' E 023°14'1417.3
2017-Jan-22 18:33N 59°43' E 023°42'22 1.8
2017-Jan-22 06:15N 59°50' E 024°23'1217.8
2017-Jan-22 05:33N 59°47' E 023°60'1817.9
2017-Jan-22 04:33N 59°42' E 023°25'2317.9
2017-Jan-22 03:16N 59°37' E 022°41'1317.7
2017-Jan-22 02:33N 59°34' E 022°17'1717.5
2017-Jan-22 01:33N 59°32' E 021°42'1817.8
2017-Jan-22 00:33N 59°36' E 021°08'4713.7
2017-Jan-21 21:09N 60°05' E 019°56'1017.1
2017-Jan-21 20:33N 59°57' E 019°43'1918.9
2017-Jan-21 19:33N 59°45' E 019°15'1514.8
2017-Jan-21 18:33N 59°37' E 018°50'1411.0
2017-Jan-21 17:19N 59°29' E 018°27'7 9.8
2017-Jan-21 16:33N 59°22' E 018°27'1010.2
2017-Jan-21 15:34N 59°19' E 018°08'1 0.9
2017-Jan-21 14:31N 59°19' E 018°06'0 0.0
2017-Jan-21 13:31N 59°19' E 018°06'0 0.0
2017-Jan-21 12:31N 59°19' E 018°06'0 0.0
2017-Jan-21 11:31N 59°19' E 018°06'0 0.0
2017-Jan-21 10:31N 59°19' E 018°06'0 0.0
2017-Jan-21 09:31N 59°19' E 018°06'2 2.1
2017-Jan-21 08:33N 59°19' E 018°10'9 9.5
2017-Jan-21 07:33N 59°23' E 018°27'9 9.0
2017-Jan-21 06:31N 59°32' E 018°33'1111.5
2017-Jan-21 05:33N 59°38' E 018°51'1313.1
2017-Jan-21 04:34N 59°44' E 019°14'1515.3
2017-Jan-21 03:33N 59°54' E 019°37'1410.2
2017-Jan-21 02:10N 60°05' E 019°56'1215.8
2017-Jan-21 01:25N 59°53' E 019°59'3717.0
2017-Jan-20 23:13N 59°37' E 021°06'1117.2
2017-Jan-20 22:33N 59°34' E 021°28'1817.2
2017-Jan-20 21:30N 59°33' E 022°03'3917.4
2017-Jan-20 19:16N 59°40' E 023°19'1217.4
2017-Jan-20 18:33N 59°44' E 023°42'21 1.7
2017-Jan-20 06:14N 59°50' E 024°22'1217.9
2017-Jan-20 05:33N 59°47' E 023°59'1817.9
2017-Jan-20 04:33N 59°42' E 023°25'3617.9
2017-Jan-20 02:33N 59°34' E 022°16'1817.7
2017-Jan-20 01:33N 59°32' E 021°41'6512.9
2017-Jan-19 20:33N 59°58' E 019°43'2020.4
2017-Jan-19 19:34N 59°44' E 019°13'1514.6
2017-Jan-19 18:34N 59°37' E 018°48'1311.0
2017-Jan-19 17:22N 59°29' E 018°27'8 8.6
2017-Jan-19 16:28N 59°22' E 018°24'910.2
2017-Jan-19 15:34N 59°19' E 018°07'1 0.5
2017-Jan-19 14:32N 59°19' E 018°06'0 0.0
2017-Jan-19 13:32N 59°19' E 018°06'0 0.0
2017-Jan-19 12:32N 59°19' E 018°06'0 0.0
2017-Jan-19 11:32N 59°19' E 018°06'0 0.0
2017-Jan-19 10:32N 59°19' E 018°06'0 0.0
2017-Jan-19 09:32N 59°19' E 018°06'2 2.3
2017-Jan-19 08:34N 59°19' E 018°10'9 9.1
2017-Jan-19 07:32N 59°24' E 018°27'9 9.0
2017-Jan-19 06:33N 59°32' E 018°33'1111.5
2017-Jan-19 05:33N 59°38' E 018°52'1312.9
2017-Jan-19 04:33N 59°45' E 019°14'1515.3
2017-Jan-19 03:33N 59°54' E 019°37'6011.9
2017-Jan-18 22:31N 59°34' E 021°29'5117.2
2017-Jan-18 19:33N 59°39' E 023°09'1717.3
2017-Jan-18 18:33N 59°44' E 023°43'1717.3
2017-Jan-18 17:33N 59°49' E 024°16'6 0.6
2017-Jan-18 06:23N 59°51' E 024°27'1518.0
2017-Jan-18 05:33N 59°47' E 023°59'1818.1
2017-Jan-18 04:33N 59°42' E 023°24'3618.0
2017-Jan-18 02:33N 59°34' E 022°14'1817.8
2017-Jan-18 01:33N 59°32' E 021°40'6412.7
2017-Jan-17 20:33N 59°57' E 019°43'2019.6
2017-Jan-17 19:33N 59°44' E 019°13'1514.5
2017-Jan-17 18:34N 59°37' E 018°48'1310.9
2017-Jan-17 17:23N 59°29' E 018°27'8 9.8
2017-Jan-17 16:33N 59°21' E 018°26'1010.1
2017-Jan-17 15:34N 59°19' E 018°07'1 0.5
2017-Jan-17 14:31N 59°19' E 018°06'0 0.0
2017-Jan-17 13:31N 59°19' E 018°06'0 0.0
2017-Jan-17 12:31N 59°19' E 018°06'0 0.0
2017-Jan-17 11:31N 59°19' E 018°06'0 0.0
2017-Jan-17 10:31N 59°19' E 018°06'0 0.0
2017-Jan-17 09:31N 59°19' E 018°06'2 2.4
2017-Jan-17 08:33N 59°19' E 018°10'9 9.2
2017-Jan-17 07:33N 59°23' E 018°27'9 9.0
2017-Jan-17 06:33N 59°32' E 018°33'1111.5
2017-Jan-17 05:33N 59°38' E 018°52'1312.8
2017-Jan-17 04:34N 59°44' E 019°14'1515.4
2017-Jan-17 03:33N 59°54' E 019°38'1410.0
2017-Jan-17 02:10N 60°05' E 019°56'1216.0
2017-Jan-17 01:25N 59°53' E 019°59'3817.1
2017-Jan-16 23:12N 59°37' E 021°07'1217.9
2017-Jan-16 22:34N 59°34' E 021°29'1817.2
2017-Jan-16 21:32N 59°33' E 022°04'3417.0
2017-Jan-16 19:33N 59°40' E 023°09'1717.3
2017-Jan-16 18:34N 59°44' E 023°42'1717.3
2017-Jan-16 17:33N 59°49' E 024°15'7 0.6
2017-Jan-16 06:24N 59°51' E 024°28'1517.9
2017-Jan-16 05:34N 59°46' E 023°60'1818.0
2017-Jan-16 04:33N 59°42' E 023°25'3617.9
2017-Jan-16 02:32N 59°34' E 022°15'1717.8
2017-Jan-16 01:33N 59°32' E 021°41'6212.4
2017-Jan-15 20:32N 59°55' E 019°46'1919.2
2017-Jan-15 19:34N 59°45' E 019°15'1514.9
2017-Jan-15 18:33N 59°37' E 018°49'1111.1
2017-Jan-15 17:32N 59°31' E 018°31'9 9.6
2017-Jan-15 16:33N 59°22' E 018°27'1010.2
2017-Jan-15 15:33N 59°19' E 018°08'1 0.8
2017-Jan-15 14:31N 59°19' E 018°06'0 0.0
2017-Jan-15 13:31N 59°19' E 018°06'0 0.0
2017-Jan-15 12:25N 59°19' E 018°06'0 0.0
2017-Jan-15 11:31N 59°19' E 018°06'0 0.0
2017-Jan-15 10:31N 59°19' E 018°06'0 0.0
2017-Jan-15 09:31N 59°19' E 018°06'2 2.2
2017-Jan-15 08:33N 59°19' E 018°10'10 9.1
2017-Jan-15 07:31N 59°24' E 018°27'9 9.1
2017-Jan-15 06:33N 59°32' E 018°33'1111.3
2017-Jan-15 05:33N 59°38' E 018°51'1313.0
2017-Jan-15 04:34N 59°44' E 019°14'1515.2
2017-Jan-15 03:34N 59°54' E 019°37'14 9.9
2017-Jan-15 02:09N 60°04' E 019°56'5515.2
2017-Jan-14 22:33N 59°34' E 021°26'1716.9
2017-Jan-14 21:33N 59°33' E 021°59'3617.9
2017-Jan-14 19:32N 59°37' E 023°10'1717.8
2017-Jan-14 18:34N 59°44' E 023°42'20 1.6
2017-Jan-14 06:10N 59°50' E 024°20'1118.0
2017-Jan-14 05:33N 59°47' E 023°59'1818.0
2017-Jan-14 04:33N 59°42' E 023°24'11414.0
2017-Jan-13 20:26N 59°56' E 019°39'1618.3
2017-Jan-13 19:33N 59°45' E 019°16'1514.9
2017-Jan-13 18:34N 59°37' E 018°50'1611.0
2017-Jan-13 17:07N 59°27' E 018°26'5 9.3
2017-Jan-13 16:33N 59°22' E 018°27'1010.0
2017-Jan-13 15:33N 59°19' E 018°08'1 1.2
2017-Jan-13 14:33N 59°19' E 018°06'0 0.0
2017-Jan-13 13:33N 59°19' E 018°06'0 0.0
2017-Jan-13 12:33N 59°19' E 018°06'0 0.0
2017-Jan-13 11:33N 59°19' E 018°06'0 0.0
2017-Jan-13 10:33N 59°19' E 018°06'0 0.0
2017-Jan-13 09:33N 59°19' E 018°06'2 2.2
2017-Jan-13 08:33N 59°19' E 018°10'9 9.0
2017-Jan-13 07:31N 59°24' E 018°27'  
Track history (hours):
 
Tides and Currents Weather Stations Pressure Air Temp Water Temp Dewpoint Dewpoint Depression Visibility Wind Speed Wind Dir Waves Ship Positions

Gabriella

Last reported at 2017-Jan-23 07:30 UTC. Time now 2017-Jan-23 08:32 UTC.
Position N 59°24' E 018°27'.

Length 172 m; draft 6.5 m.

Type: Passenger vessel. MMSI: 230361000.

Date/timePositionNaut miles runAvg speedWind from/ knotsBaromVisibWave heightAir tempDewpointWater temp
2017-Jan-23 07:30N 59°24' E 018°27'10 8.9
2017-Jan-23 06:25N 59°33' E 018°35'1011.5
2017-Jan-23 05:34N 59°38' E 018°51'1313.1
2017-Jan-23 04:34N 59°44' E 019°14'1515.5
2017-Jan-23 03:33N 59°54' E 019°38'14 9.6
2017-Jan-23 02:08N 60°04' E 019°55'4515.3
2017-Jan-22 23:11N 59°37' E 021°07'1117.2
2017-Jan-22 22:33N 59°34' E 021°28'1717.1
2017-Jan-22 21:34N 59°33' E 022°01'3817.4
2017-Jan-22 19:23N 59°40' E 023°14'1417.3
2017-Jan-22 18:33N 59°43' E 023°42'22 1.8
2017-Jan-22 06:15N 59°50' E 024°23'1217.8
2017-Jan-22 05:33N 59°47' E 023°60'1817.9
2017-Jan-22 04:33N 59°42' E 023°25'2317.9
2017-Jan-22 03:16N 59°37' E 022°41'1317.7
2017-Jan-22 02:33N 59°34' E 022°17'1717.5
2017-Jan-22 01:33N 59°32' E 021°42'1817.8
2017-Jan-22 00:33N 59°36' E 021°08'4713.7
2017-Jan-21 21:09N 60°05' E 019°56'1017.1
2017-Jan-21 20:33N 59°57' E 019°43'1918.9
2017-Jan-21 19:33N 59°45' E 019°15'1514.8
2017-Jan-21 18:33N 59°37' E 018°50'1411.0
2017-Jan-21 17:19N 59°29' E 018°27'7 9.8
2017-Jan-21 16:33N 59°22' E 018°27'1010.2
2017-Jan-21 15:34N 59°19' E 018°08'1 0.9
2017-Jan-21 14:31N 59°19' E 018°06'0 0.0
2017-Jan-21 13:31N 59°19' E 018°06'0 0.0
2017-Jan-21 12:31N 59°19' E 018°06'0 0.0
2017-Jan-21 11:31N 59°19' E 018°06'0 0.0
2017-Jan-21 10:31N 59°19' E 018°06'0 0.0
2017-Jan-21 09:31N 59°19' E 018°06'2 2.1
2017-Jan-21 08:33N 59°19' E 018°10'9 9.5
2017-Jan-21 07:33N 59°23' E 018°27'9 9.0
2017-Jan-21 06:31N 59°32' E 018°33'1111.5
2017-Jan-21 05:33N 59°38' E 018°51'1313.1
2017-Jan-21 04:34N 59°44' E 019°14'1515.3
2017-Jan-21 03:33N 59°54' E 019°37'1410.2
2017-Jan-21 02:10N 60°05' E 019°56'1215.8
2017-Jan-21 01:25N 59°53' E 019°59'3717.0
2017-Jan-20 23:13N 59°37' E 021°06'1117.2
2017-Jan-20 22:33N 59°34' E 021°28'1817.2
2017-Jan-20 21:30N 59°33' E 022°03'3917.4
2017-Jan-20 19:16N 59°40' E 023°19'1217.4
2017-Jan-20 18:33N 59°44' E 023°42'21 1.7
2017-Jan-20 06:14N 59°50' E 024°22'1217.9
2017-Jan-20 05:33N 59°47' E 023°59'1817.9
2017-Jan-20 04:33N 59°42' E 023°25'3617.9
2017-Jan-20 02:33N 59°34' E 022°16'1817.7
2017-Jan-20 01:33N 59°32' E 021°41'6512.9
2017-Jan-19 20:33N 59°58' E 019°43'2020.4
2017-Jan-19 19:34N 59°44' E 019°13'1514.6
2017-Jan-19 18:34N 59°37' E 018°48'1311.0
2017-Jan-19 17:22N 59°29' E 018°27'8 8.6
2017-Jan-19 16:28N 59°22' E 018°24'910.2
2017-Jan-19 15:34N 59°19' E 018°07'1 0.5
2017-Jan-19 14:32N 59°19' E 018°06'0 0.0
2017-Jan-19 13:32N 59°19' E 018°06'0 0.0
2017-Jan-19 12:32N 59°19' E 018°06'0 0.0
2017-Jan-19 11:32N 59°19' E 018°06'0 0.0
2017-Jan-19 10:32N 59°19' E 018°06'0 0.0
2017-Jan-19 09:32N 59°19' E 018°06'2 2.3
2017-Jan-19 08:34N 59°19' E 018°10'9 9.1
2017-Jan-19 07:32N 59°24' E 018°27'9 9.0
2017-Jan-19 06:33N 59°32' E 018°33'1111.5
2017-Jan-19 05:33N 59°38' E 018°52'1312.9
2017-Jan-19 04:33N 59°45' E 019°14'1515.3
2017-Jan-19 03:33N 59°54' E 019°37'6011.9
2017-Jan-18 22:31N 59°34' E 021°29'5117.2
2017-Jan-18 19:33N 59°39' E 023°09'1717.3
2017-Jan-18 18:33N 59°44' E 023°43'1717.3
2017-Jan-18 17:33N 59°49' E 024°16'6 0.6
2017-Jan-18 06:23N 59°51' E 024°27'1518.0
2017-Jan-18 05:33N 59°47' E 023°59'1818.1
2017-Jan-18 04:33N 59°42' E 023°24'3618.0
2017-Jan-18 02:33N 59°34' E 022°14'1817.8
2017-Jan-18 01:33N 59°32' E 021°40'6412.7
2017-Jan-17 20:33N 59°57' E 019°43'2019.6
2017-Jan-17 19:33N 59°44' E 019°13'1514.5
2017-Jan-17 18:34N 59°37' E 018°48'1310.9
2017-Jan-17 17:23N 59°29' E 018°27'8 9.8
2017-Jan-17 16:33N 59°21' E 018°26'1010.1
2017-Jan-17 15:34N 59°19' E 018°07'1 0.5
2017-Jan-17 14:31N 59°19' E 018°06'0 0.0
2017-Jan-17 13:31N 59°19' E 018°06'0 0.0
2017-Jan-17 12:31N 59°19' E 018°06'0 0.0
2017-Jan-17 11:31N 59°19' E 018°06'0 0.0
2017-Jan-17 10:31N 59°19' E 018°06'0 0.0
2017-Jan-17 09:31N 59°19' E 018°06'2 2.4
2017-Jan-17 08:33N 59°19' E 018°10'9 9.2
2017-Jan-17 07:33N 59°23' E 018°27'9 9.0
2017-Jan-17 06:33N 59°32' E 018°33'1111.5
2017-Jan-17 05:33N 59°38' E 018°52'1312.8
2017-Jan-17 04:34N 59°44' E 019°14'1515.4
2017-Jan-17 03:33N 59°54' E 019°38'1410.0
2017-Jan-17 02:10N 60°05' E 019°56'1216.0
2017-Jan-17 01:25N 59°53' E 019°59'3817.1
2017-Jan-16 23:12N 59°37' E 021°07'1217.9
2017-Jan-16 22:34N 59°34' E 021°29'1817.2
2017-Jan-16 21:32N 59°33' E 022°04'3417.0
2017-Jan-16 19:33N 59°40' E 023°09'1717.3
2017-Jan-16 18:34N 59°44' E 023°42'1717.3
2017-Jan-16 17:33N 59°49' E 024°15'7 0.6
2017-Jan-16 06:24N 59°51' E 024°28'1517.9
2017-Jan-16 05:34N 59°46' E 023°60'1818.0
2017-Jan-16 04:33N 59°42' E 023°25'3617.9
2017-Jan-16 02:32N 59°34' E 022°15'1717.8
2017-Jan-16 01:33N 59°32' E 021°41'6212.4
2017-Jan-15 20:32N 59°55' E 019°46'1919.2
2017-Jan-15 19:34N 59°45' E 019°15'1514.9
2017-Jan-15 18:33N 59°37' E 018°49'1111.1
2017-Jan-15 17:32N 59°31' E 018°31'9 9.6
2017-Jan-15 16:33N 59°22' E 018°27'1010.2
2017-Jan-15 15:33N 59°19' E 018°08'1 0.8
2017-Jan-15 14:31N 59°19' E 018°06'0 0.0
2017-Jan-15 13:31N 59°19' E 018°06'0 0.0
2017-Jan-15 12:25N 59°19' E 018°06'0 0.0
2017-Jan-15 11:31N 59°19' E 018°06'0 0.0
2017-Jan-15 10:31N 59°19' E 018°06'0 0.0
2017-Jan-15 09:31N 59°19' E 018°06'2 2.2
2017-Jan-15 08:33N 59°19' E 018°10'10 9.1
2017-Jan-15 07:31N 59°24' E 018°27'9 9.1
2017-Jan-15 06:33N 59°32' E 018°33'1111.3
2017-Jan-15 05:33N 59°38' E 018°51'1313.0
2017-Jan-15 04:34N 59°44' E 019°14'1515.2
2017-Jan-15 03:34N 59°54' E 019°37'14 9.9
2017-Jan-15 02:09N 60°04' E 019°56'5515.2
2017-Jan-14 22:33N 59°34' E 021°26'1716.9
2017-Jan-14 21:33N 59°33' E 021°59'3617.9
2017-Jan-14 19:32N 59°37' E 023°10'1717.8
2017-Jan-14 18:34N 59°44' E 023°42'20 1.6
2017-Jan-14 06:10N 59°50' E 024°20'1118.0
2017-Jan-14 05:33N 59°47' E 023°59'1818.0
2017-Jan-14 04:33N 59°42' E 023°24'11414.0
2017-Jan-13 20:26N 59°56' E 019°39'1618.3
2017-Jan-13 19:33N 59°45' E 019°16'1514.9
2017-Jan-13 18:34N 59°37' E 018°50'1611.0
2017-Jan-13 17:07N 59°27' E 018°26'5 9.3
2017-Jan-13 16:33N 59°22' E 018°27'1010.0
2017-Jan-13 15:33N 59°19' E 018°08'1 1.2
2017-Jan-13 14:33N 59°19' E 018°06'0 0.0
2017-Jan-13 13:33N 59°19' E 018°06'0 0.0
2017-Jan-13 12:33N 59°19' E 018°06'0 0.0
2017-Jan-13 11:33N 59°19' E 018°06'0 0.0
2017-Jan-13 10:33N 59°19' E 018°06'0 0.0
2017-Jan-13 09:33N 59°19' E 018°06'2 2.2
2017-Jan-13 08:33N 59°19' E 018°10'9 9.0
2017-Jan-13 07:31N 59°24' E 018°27'  

Dump ship's entire track history